This is the latest recevied weather packets stored in our database for station/object KF4WSW-13. If no packets are shown the sender has not sent any weather packets the latest 10 day(s).
| Time | Temp. | Humidity | Pressure | Rain* | Wind** | Luminosity | Snow |
|---|---|---|---|---|---|---|---|
| 1777834936 | 24.44° C | 61% | 1014.8 hPa | 0 mm | - | 739 W/m² | - |
| 1777834633 | 24.44° C | 63% | 1015.1 hPa | 0 mm | - | 748 W/m² | - |
| 1777834328 | 24.44° C | 63% | 1015.1 hPa | 0 mm | - | 793 W/m² | - |
| 1777834023 | 24.44° C | 62% | 1015.1 hPa | 0 mm | - | 796 W/m² | - |
| 1777833720 | 24.44° C | 64% | 1015.4 hPa | 0 mm | - | 195 W/m² | - |
| 1777833416 | 25° C | 62% | 1015.4 hPa | 0 mm | - | 822 W/m² | - |
| 1777833114 | 24.44° C | 61% | 1015.5 hPa | 0 mm | - | 297 W/m² | - |
| 1777832812 | 23.89° C | 66% | 1015.3 hPa | 0 mm | - | 341 W/m² | - |
| 1777832510 | 25° C | 57% | 1015.7 hPa | 0 mm | - | 244 W/m² | - |
| 1777832206 | 25° C | 53% | 1015.8 hPa | 0 mm | - | 408 W/m² | - |
| 1777831903 | 24.44° C | 60% | 1015.8 hPa | 0 mm | - | 439 W/m² | - |
| 1777831600 | 24.44° C | 56% | 1015.7 hPa | 0 mm | - | 946 W/m² | - |
| 1777831298 | 23.89° C | 59% | 1015.7 hPa | 0 mm | - | 876 W/m² | - |
| 1777830995 | 23.89° C | 61% | 1015.9 hPa | 0 mm | - | 398 W/m² | - |
| 1777830692 | 23.89° C | 62% | 1015.8 hPa | 0 mm | - | 930 W/m² | - |
| 1777830388 | 23.89° C | 64% | 1016 hPa | 0 mm | - | 223 W/m² | - |
| 1777830086 | 24.44° C | 59% | 1015.9 hPa | 0 mm | - | 804 W/m² | - |
| 1777829780 | 23.89° C | 59% | 1016 hPa | 0 mm | - | 881 W/m² | - |
| 1777829477 | 23.89° C | 62% | 1016.1 hPa | 0 mm | - | 287 W/m² | - |
| 1777829174 | 23.89° C | 59% | 1016.3 hPa | 0 mm | - | 1001 W/m² | - |
| 1777828872 | 23.89° C | 65% | 1016.3 hPa | 0 mm | - | 947 W/m² | - |
| 1777828568 | 24.44° C | 59% | 1016 hPa | 0 mm | - | 315 W/m² | - |
| 1777828266 | 23.89° C | 64% | 1016.1 hPa | 0 mm | - | 401 W/m² | - |
| 1777827962 | 23.89° C | 60% | 1016.1 hPa | 0 mm | - | 720 W/m² | - |
| 1777827659 | 23.89° C | 62% | 1016.5 hPa | 0 mm | - | 314 W/m² | - |
* Rain latest hour (hover to see other rain measurements)
** Current wind speed in m/s (hover to see current wind gust speed)